sensor_id;sensor_type;location;lat;lon;timestamp;pressure;altitude;pressure_sealevel;temperature;humidity
929;BME280;451;47.988;7.842;2023-04-19T00:04:06;98834.84;;;10.50;91.82
929;BME280;451;47.988;7.842;2023-04-19T00:13:11;98836.94;;;10.39;92.21
929;BME280;451;47.988;7.842;2023-04-19T00:22:14;98841.69;;;10.35;92.99
929;BME280;451;47.988;7.842;2023-04-19T00:31:19;98844.66;;;10.06;94.66
929;BME280;451;47.988;7.842;2023-04-19T00:40:22;98851.72;;;9.46;99.83
929;BME280;451;47.988;7.842;2023-04-19T00:49:27;98837.59;;;9.21;100.00
929;BME280;451;47.988;7.842;2023-04-19T00:58:30;98832.16;;;8.97;100.00
929;BME280;451;47.988;7.842;2023-04-19T01:07:35;98827.00;;;9.05;100.00
929;BME280;451;47.988;7.842;2023-04-19T01:16:38;98775.78;;;8.58;100.00
929;BME280;451;47.988;7.842;2023-04-19T01:25:43;98805.28;;;8.60;100.00
929;BME280;451;47.988;7.842;2023-04-19T01:34:47;98798.22;;;8.42;100.00
929;BME280;451;47.988;7.842;2023-04-19T01:43:52;98798.69;;;8.56;100.00
929;BME280;451;47.988;7.842;2023-04-19T01:52:55;98730.66;;;8.19;100.00
929;BME280;451;47.988;7.842;2023-04-19T02:01:59;98772.63;;;8.72;100.00
929;BME280;451;47.988;7.842;2023-04-19T02:11:06;98788.56;;;8.78;100.00
929;BME280;451;47.988;7.842;2023-04-19T02:20:11;98794.31;;;8.82;100.00
929;BME280;451;47.988;7.842;2023-04-19T02:29:14;98743.13;;;8.70;100.00
929;BME280;451;47.988;7.842;2023-04-19T02:38:19;98791.00;;;9.15;100.00
929;BME280;451;47.988;7.842;2023-04-19T02:47:22;98736.97;;;8.79;100.00
929;BME280;451;47.988;7.842;2023-04-19T02:56:26;98791.56;;;9.27;100.00
929;BME280;451;47.988;7.842;2023-04-19T03:05:29;98793.19;;;9.02;100.00
929;BME280;451;47.988;7.842;2023-04-19T03:14:34;98786.81;;;8.87;100.00
929;BME280;451;47.988;7.842;2023-04-19T03:23:38;98757.19;;;8.51;100.00
929;BME280;451;47.988;7.842;2023-04-19T03:32:43;98792.06;;;8.87;100.00
929;BME280;451;47.988;7.842;2023-04-19T03:41:48;98777.66;;;8.20;100.00
929;BME280;451;47.988;7.842;2023-04-19T03:51:25;98780.97;;;7.95;100.00
929;BME280;451;47.988;7.842;2023-04-19T04:00:28;98743.44;;;7.77;100.00
929;BME280;451;47.988;7.842;2023-04-19T04:09:36;98767.59;;;7.98;100.00
929;BME280;451;47.988;7.842;2023-04-19T04:18:39;98781.59;;;8.52;100.00
929;BME280;451;47.988;7.842;2023-04-19T04:27:49;98799.44;;;8.66;100.00
929;BME280;451;47.988;7.842;2023-04-19T04:36:58;98826.53;;;8.57;100.00
929;BME280;451;47.988;7.842;2023-04-19T04:46:04;98801.75;;;8.69;100.00
929;BME280;451;47.988;7.842;2023-04-19T04:55:13;98802.13;;;8.74;100.00
929;BME280;451;47.988;7.842;2023-04-19T05:04:20;98801.75;;;8.86;100.00
929;BME280;451;47.988;7.842;2023-04-19T05:13:23;98801.38;;;9.51;100.00
929;BME280;451;47.988;7.842;2023-04-19T05:22:28;98772.09;;;9.29;100.00
929;BME280;451;47.988;7.842;2023-04-19T05:31:32;98810.88;;;10.11;100.00
929;BME280;451;47.988;7.842;2023-04-19T05:41:06;98807.41;;;10.03;100.00
929;BME280;451;47.988;7.842;2023-04-19T05:50:10;98807.28;;;10.71;95.70
929;BME280;451;47.988;7.842;2023-04-19T05:59:23;98815.03;;;10.97;94.64
929;BME280;451;47.988;7.842;2023-04-19T06:08:26;98818.47;;;11.29;90.77
929;BME280;451;47.988;7.842;2023-04-19T06:17:31;98829.00;;;11.29;89.82
929;BME280;451;47.988;7.842;2023-04-19T06:26:35;98818.13;;;10.84;92.31
929;BME280;451;47.988;7.842;2023-04-19T06:35:42;98823.66;;;11.70;88.13
929;BME280;451;47.988;7.842;2023-04-19T06:44:45;98822.56;;;11.32;89.67
929;BME280;451;47.988;7.842;2023-04-19T06:53:49;98823.53;;;11.55;89.62
929;BME280;451;47.988;7.842;2023-04-19T07:02:54;98813.28;;;11.85;87.65
929;BME280;451;47.988;7.842;2023-04-19T07:11:59;98820.16;;;12.64;86.29
929;BME280;451;47.988;7.842;2023-04-19T07:21:02;98823.75;;;12.71;84.91
929;BME280;451;47.988;7.842;2023-04-19T07:30:08;98807.31;;;13.06;81.10
929;BME280;451;47.988;7.842;2023-04-19T07:39:11;98812.03;;;13.19;80.72
929;BME280;451;47.988;7.842;2023-04-19T07:48:16;98808.38;;;13.57;81.62
929;BME280;451;47.988;7.842;2023-04-19T07:57:19;98786.41;;;13.57;78.50
929;BME280;451;47.988;7.842;2023-04-19T08:06:24;98694.94;;;13.56;76.81
929;BME280;451;47.988;7.842;2023-04-19T08:15:28;98734.94;;;13.82;74.40
929;BME280;451;47.988;7.842;2023-04-19T08:24:32;98792.41;;;14.81;73.02
929;BME280;451;47.988;7.842;2023-04-19T08:33:35;98797.09;;;15.01;70.98
929;BME280;451;47.988;7.842;2023-04-19T08:42:42;98795.78;;;13.89;79.56
929;BME280;451;47.988;7.842;2023-04-19T08:51:47;98798.44;;;14.03;81.67
929;BME280;451;47.988;7.842;2023-04-19T09:00:52;98790.88;;;14.51;76.71
929;BME280;451;47.988;7.842;2023-04-19T09:10:05;98762.22;;;14.19;77.80
929;BME280;451;47.988;7.842;2023-04-19T09:19:10;98750.13;;;14.31;77.13
929;BME280;451;47.988;7.842;2023-04-19T09:28:14;98781.66;;;13.38;88.58
929;BME280;451;47.988;7.842;2023-04-19T09:37:18;98692.66;;;13.09;88.06
929;BME280;451;47.988;7.842;2023-04-19T09:46:32;98765.28;;;13.86;83.47
929;BME280;451;47.988;7.842;2023-04-19T09:55:38;98745.09;;;14.00;80.47
929;BME280;451;47.988;7.842;2023-04-19T10:04:42;98725.56;;;14.16;79.75
929;BME280;451;47.988;7.842;2023-04-19T10:13:48;98735.66;;;14.63;79.67
929;BME280;451;47.988;7.842;2023-04-19T10:22:52;98709.81;;;14.07;83.13
929;BME280;451;47.988;7.842;2023-04-19T10:31:57;98707.63;;;14.47;78.36
929;BME280;451;47.988;7.842;2023-04-19T10:41:00;98724.78;;;15.28;72.92
929;BME280;451;47.988;7.842;2023-04-19T10:50:07;98711.75;;;15.33;72.08
929;BME280;451;47.988;7.842;2023-04-19T10:59:15;98710.00;;;15.81;69.32
929;BME280;451;47.988;7.842;2023-04-19T11:08:25;98690.19;;;14.80;73.82
929;BME280;451;47.988;7.842;2023-04-19T11:17:29;98678.88;;;14.86;73.72
929;BME280;451;47.988;7.842;2023-04-19T11:26:34;98663.69;;;14.31;76.64
929;BME280;451;47.988;7.842;2023-04-19T11:35:37;98670.34;;;14.42;76.76
929;BME280;451;47.988;7.842;2023-04-19T11:44:47;98669.59;;;14.48;72.71
929;BME280;451;47.988;7.842;2023-04-19T11:53:50;98642.84;;;14.64;73.76
929;BME280;451;47.988;7.842;2023-04-19T12:02:55;98618.03;;;14.65;73.36
929;BME280;451;47.988;7.842;2023-04-19T12:11:59;98641.09;;;15.40;69.85
929;BME280;451;47.988;7.842;2023-04-19T12:21:04;98641.03;;;14.92;72.78
929;BME280;451;47.988;7.842;2023-04-19T12:30:09;98631.06;;;15.29;72.74
929;BME280;451;47.988;7.842;2023-04-19T12:39:13;98613.47;;;15.15;70.14
929;BME280;451;47.988;7.842;2023-04-19T12:48:16;98615.81;;;15.38;70.48
929;BME280;451;47.988;7.842;2023-04-19T12:57:21;98603.84;;;15.48;69.50
929;BME280;451;47.988;7.842;2023-04-19T13:06:24;98598.31;;;16.43;64.35
929;BME280;451;47.988;7.842;2023-04-19T13:15:29;98534.13;;;15.48;65.03
929;BME280;451;47.988;7.842;2023-04-19T13:24:32;98538.50;;;15.75;63.50
929;BME280;451;47.988;7.842;2023-04-19T13:33:37;98561.59;;;16.40;63.08
929;BME280;451;47.988;7.842;2023-04-19T13:42:40;98528.22;;;14.91;68.22
929;BME280;451;47.988;7.842;2023-04-19T13:51:44;98519.81;;;14.26;70.30
929;BME280;451;47.988;7.842;2023-04-19T14:00:47;98524.94;;;14.89;68.68
929;BME280;451;47.988;7.842;2023-04-19T14:09:52;98496.22;;;14.86;67.69
929;BME280;451;47.988;7.842;2023-04-19T14:18:55;98514.59;;;15.01;68.07
929;BME280;451;47.988;7.842;2023-04-19T14:27:59;98500.97;;;15.04;68.32
929;BME280;451;47.988;7.842;2023-04-19T14:37:02;98496.84;;;14.95;69.62
929;BME280;451;47.988;7.842;2023-04-19T14:46:06;98486.28;;;15.02;67.79
929;BME280;451;47.988;7.842;2023-04-19T14:55:10;98465.94;;;15.09;66.35
929;BME280;451;47.988;7.842;2023-04-19T15:04:14;98470.19;;;15.84;63.56
929;BME280;451;47.988;7.842;2023-04-19T15:13:17;98421.59;;;16.36;60.79
929;BME280;451;47.988;7.842;2023-04-19T15:22:22;98448.25;;;16.74;60.79
929;BME280;451;47.988;7.842;2023-04-19T15:31:25;98430.84;;;16.84;59.59
929;BME280;451;47.988;7.842;2023-04-19T15:40:29;98388.75;;;16.30;60.00
929;BME280;451;47.988;7.842;2023-04-19T15:49:32;98448.03;;;15.04;68.37
929;BME280;451;47.988;7.842;2023-04-19T15:58:37;98436.28;;;14.72;70.70
929;BME280;451;47.988;7.842;2023-04-19T16:07:41;98443.91;;;14.20;74.52
929;BME280;451;47.988;7.842;2023-04-19T16:16:46;98445.91;;;14.11;75.97
929;BME280;451;47.988;7.842;2023-04-19T16:25:49;98418.00;;;14.08;77.00
929;BME280;451;47.988;7.842;2023-04-19T16:34:53;98441.34;;;13.98;79.59
929;BME280;451;47.988;7.842;2023-04-19T16:43:56;98403.16;;;13.52;87.04
929;BME280;451;47.988;7.842;2023-04-19T16:53:01;98435.72;;;13.16;100.00
929;BME280;451;47.988;7.842;2023-04-19T17:02:04;98445.81;;;12.47;100.00
929;BME280;451;47.988;7.842;2023-04-19T17:11:09;98446.56;;;11.75;100.00
929;BME280;451;47.988;7.842;2023-04-19T17:20:12;98441.31;;;11.29;100.00
929;BME280;451;47.988;7.842;2023-04-19T17:29:17;98437.38;;;11.25;100.00
929;BME280;451;47.988;7.842;2023-04-19T17:38:20;98444.47;;;10.93;100.00
929;BME280;451;47.988;7.842;2023-04-19T17:47:24;98454.25;;;11.08;100.00
929;BME280;451;47.988;7.842;2023-04-19T17:56:27;98451.31;;;10.72;100.00
929;BME280;451;47.988;7.842;2023-04-19T18:05:32;98462.97;;;10.77;100.00
929;BME280;451;47.988;7.842;2023-04-19T18:14:35;98459.19;;;10.80;100.00
929;BME280;451;47.988;7.842;2023-04-19T18:23:39;98464.59;;;10.86;100.00
929;BME280;451;47.988;7.842;2023-04-19T18:32:42;98460.00;;;10.80;100.00
929;BME280;451;47.988;7.842;2023-04-19T18:41:46;98486.72;;;10.53;100.00
929;BME280;451;47.988;7.842;2023-04-19T18:50:49;98485.97;;;10.36;100.00
929;BME280;451;47.988;7.842;2023-04-19T18:59:54;98429.41;;;9.61;100.00
929;BME280;451;47.988;7.842;2023-04-19T19:08:57;98501.59;;;9.73;100.00
929;BME280;451;47.988;7.842;2023-04-19T19:18:02;98506.81;;;9.57;100.00
929;BME280;451;47.988;7.842;2023-04-19T19:27:05;98470.22;;;9.31;100.00
929;BME280;451;47.988;7.842;2023-04-19T19:36:10;98507.44;;;9.26;100.00
929;BME280;451;47.988;7.842;2023-04-19T19:45:13;98492.00;;;9.15;100.00
929;BME280;451;47.988;7.842;2023-04-19T19:54:17;98478.13;;;8.81;100.00
929;BME280;451;47.988;7.842;2023-04-19T20:03:20;98466.41;;;8.93;100.00
929;BME280;451;47.988;7.842;2023-04-19T20:12:25;98447.72;;;8.96;100.00
929;BME280;451;47.988;7.842;2023-04-19T20:21:28;98454.22;;;8.84;100.00
929;BME280;451;47.988;7.842;2023-04-19T20:30:33;98446.84;;;8.87;100.00
929;BME280;451;47.988;7.842;2023-04-19T20:39:36;98462.69;;;8.70;100.00
929;BME280;451;47.988;7.842;2023-04-19T20:48:40;98460.75;;;8.72;100.00
929;BME280;451;47.988;7.842;2023-04-19T20:57:44;98485.66;;;8.76;100.00
929;BME280;451;47.988;7.842;2023-04-19T21:06:48;98466.97;;;8.71;100.00
929;BME280;451;47.988;7.842;2023-04-19T21:15:51;98476.63;;;8.70;100.00
929;BME280;451;47.988;7.842;2023-04-19T21:24:56;98448.84;;;8.85;100.00
929;BME280;451;47.988;7.842;2023-04-19T21:33:59;98478.84;;;8.91;100.00
929;BME280;451;47.988;7.842;2023-04-19T21:43:04;98459.34;;;9.02;100.00
929;BME280;451;47.988;7.842;2023-04-19T21:52:07;98464.19;;;8.72;100.00
929;BME280;451;47.988;7.842;2023-04-19T22:01:11;98480.00;;;8.97;100.00
929;BME280;451;47.988;7.842;2023-04-19T22:10:14;98480.78;;;8.89;100.00
929;BME280;451;47.988;7.842;2023-04-19T22:19:19;98465.44;;;9.02;100.00
929;BME280;451;47.988;7.842;2023-04-19T22:28:23;98471.75;;;8.83;100.00
929;BME280;451;47.988;7.842;2023-04-19T22:37:28;98456.69;;;8.94;100.00
929;BME280;451;47.988;7.842;2023-04-19T22:46:32;98446.34;;;8.68;100.00
929;BME280;451;47.988;7.842;2023-04-19T22:55:36;98414.88;;;8.68;100.00
929;BME280;451;47.988;7.842;2023-04-19T23:04:39;98415.59;;;8.86;100.00
929;BME280;451;47.988;7.842;2023-04-19T23:13:45;98404.41;;;8.68;100.00
929;BME280;451;47.988;7.842;2023-04-19T23:22:48;98396.28;;;8.11;100.00
929;BME280;451;47.988;7.842;2023-04-19T23:31:52;98386.66;;;8.54;100.00
929;BME280;451;47.988;7.842;2023-04-19T23:40:55;98379.16;;;8.59;100.00
929;BME280;451;47.988;7.842;2023-04-19T23:49:59;98375.66;;;8.42;100.00
929;BME280;451;47.988;7.842;2023-04-19T23:59:02;98354.88;;;8.40;100.00
